createdAt,value
2023-05-08T00:00:42.238Z,56.79
2023-05-08T00:03:11.486Z,56.65
2023-05-08T00:05:39.457Z,57.08
2023-05-08T00:08:07.508Z,56.97
2023-05-08T00:10:35.607Z,56.69
2023-05-08T00:13:03.571Z,57.32
2023-05-08T00:15:31.607Z,57.41
2023-05-08T00:17:59.654Z,57.54
2023-05-08T00:20:29.103Z,57.36
2023-05-08T00:22:58.032Z,57.05
2023-05-08T00:25:26.153Z,57.63
2023-05-08T00:27:54.249Z,57.71
2023-05-08T00:30:22.544Z,57.55
2023-05-08T00:32:50.458Z,57.38
2023-05-08T00:35:18.535Z,57.36
2023-05-08T00:37:47.915Z,57.64
2023-05-08T00:40:16.213Z,57.48
2023-05-08T00:42:44.208Z,57.23
2023-05-08T00:45:13.345Z,57.48
2023-05-08T00:47:42.391Z,57.22
2023-05-08T00:50:12.138Z,57.59
2023-05-08T00:52:41.450Z,57.53
2023-05-08T00:55:11.108Z,57.53
2023-05-08T00:57:40.041Z,57.33
2023-05-08T01:00:09.256Z,57.63
2023-05-08T01:02:37.577Z,57.70
2023-05-08T01:05:07.801Z,57.96
2023-05-08T01:07:36.025Z,58.11
2023-05-08T01:10:03.985Z,57.82
2023-05-08T01:12:48.214Z,58.16
2023-05-08T01:15:19.691Z,57.97
2023-05-08T01:17:58.779Z,57.80
2023-05-08T01:20:40.895Z,58.15
2023-05-08T01:23:45.407Z,58.17
2023-05-08T01:26:32.847Z,58.27
2023-05-08T01:29:40.241Z,58.44
2023-05-08T01:32:19.806Z,58.19
2023-05-08T01:35:01.844Z,58.81
2023-05-08T01:37:38.682Z,58.45
2023-05-08T01:40:14.203Z,58.45
2023-05-08T01:42:50.368Z,58.97
2023-05-08T01:45:23.621Z,58.91
2023-05-08T01:48:01.771Z,59.14
2023-05-08T01:50:34.770Z,58.88
2023-05-08T01:53:10.871Z,59.02
2023-05-08T01:55:42.332Z,58.77
2023-05-08T01:58:13.257Z,59.01
2023-05-08T02:00:42.677Z,59.13
2023-05-08T02:03:14.974Z,59.09
2023-05-08T02:05:45.352Z,59.19
2023-05-08T02:08:14.282Z,59.50
2023-05-08T02:10:43.604Z,59.12
2023-05-08T02:13:12.782Z,59.31
2023-05-08T02:15:43.144Z,59.25
2023-05-08T02:18:14.378Z,59.51
2023-05-08T02:20:43.321Z,59.12
2023-05-08T02:23:13.838Z,59.62
2023-05-08T02:25:43.879Z,59.76
2023-05-08T02:28:12.576Z,59.74
2023-05-08T02:30:41.508Z,59.65
2023-05-08T02:33:10.932Z,59.60
2023-05-08T02:35:42.191Z,59.86
2023-05-08T02:38:11.781Z,59.87
2023-05-08T02:40:45.369Z,60.31
2023-05-08T02:43:13.694Z,60.34
2023-05-08T02:45:46.834Z,60.38
2023-05-08T02:48:21.202Z,60.50
2023-05-08T02:50:59.219Z,60.49
2023-05-08T02:53:34.038Z,60.14
2023-05-08T02:56:06.977Z,60.48
2023-05-08T02:58:41.776Z,60.29
2023-05-08T03:01:22.950Z,60.65
2023-05-08T03:04:01.010Z,60.40
2023-05-08T03:06:36.394Z,60.53
2023-05-08T03:09:06.451Z,60.60
2023-05-08T03:11:41.545Z,60.47
2023-05-08T03:14:14.286Z,60.58
2023-05-08T03:16:45.983Z,60.69
2023-05-08T03:19:23.277Z,60.76
2023-05-08T03:21:53.184Z,60.74
2023-05-08T03:24:23.879Z,60.78
2023-05-08T03:26:52.312Z,60.79
2023-05-08T03:29:21.463Z,61.10
2023-05-08T03:31:52.128Z,61.26
2023-05-08T03:34:22.339Z,61.36
2023-05-08T03:36:50.385Z,61.31
2023-05-08T03:39:20.075Z,61.08
2023-05-08T03:41:48.009Z,61.13
2023-05-08T03:44:16.646Z,61.09
2023-05-08T03:46:46.259Z,61.43
2023-05-08T03:49:16.062Z,61.13
2023-05-08T03:51:44.494Z,61.37
2023-05-08T03:54:12.504Z,61.53
2023-05-08T03:56:41.769Z,62.11
2023-05-08T03:59:18.580Z,62.05
2023-05-08T04:01:53.438Z,61.99
2023-05-08T04:04:40.932Z,62.12
2023-05-08T04:07:15.124Z,61.77
2023-05-08T04:09:52.733Z,62.06
2023-05-08T04:12:27.646Z,61.65
2023-05-08T04:15:02.550Z,61.64
2023-05-08T04:17:37.370Z,61.99
2023-05-08T04:20:08.118Z,62.02
2023-05-08T04:22:39.780Z,62.57
2023-05-08T04:25:12.122Z,62.42
2023-05-08T04:27:43.661Z,62.59
2023-05-08T04:30:12.621Z,62.31
2023-05-08T04:32:42.319Z,62.82
2023-05-08T04:35:13.716Z,63.37
2023-05-08T04:37:43.450Z,62.79
2023-05-08T04:40:12.269Z,62.97
2023-05-08T04:42:43.226Z,62.82
2023-05-08T04:45:12.165Z,62.47
2023-05-08T04:47:40.512Z,62.63
2023-05-08T04:50:09.063Z,62.75
2023-05-08T04:52:36.909Z,63.00
2023-05-08T04:55:05.077Z,62.64
2023-05-08T04:57:33.036Z,62.34
2023-05-08T05:00:02.289Z,62.20
2023-05-08T05:02:30.119Z,61.95
2023-05-08T05:05:01.456Z,61.98
2023-05-08T05:07:29.362Z,61.25
2023-05-08T05:09:57.221Z,61.44
2023-05-08T05:12:25.520Z,60.92
2023-05-08T05:14:53.369Z,60.87
2023-05-08T05:17:23.162Z,60.22
2023-05-08T05:19:53.314Z,60.75
2023-05-08T05:22:21.362Z,60.32
2023-05-08T05:24:49.229Z,59.42
2023-05-08T05:27:19.899Z,59.69
2023-05-08T05:29:49.055Z,59.61
2023-05-08T05:32:16.945Z,59.49
2023-05-08T05:34:46.457Z,59.31
2023-05-08T05:37:16.633Z,58.75
2023-05-08T05:39:55.816Z,59.03
2023-05-08T05:42:24.344Z,58.71
2023-05-08T05:44:52.176Z,58.04
2023-05-08T05:47:20.159Z,58.17
2023-05-08T05:49:49.397Z,57.59
2023-05-08T05:52:17.231Z,58.00
2023-05-08T05:54:46.752Z,57.54
2023-05-08T05:57:15.271Z,57.36
2023-05-08T05:59:43.526Z,57.34
2023-05-08T06:02:14.661Z,57.30
2023-05-08T06:04:42.621Z,56.54
2023-05-08T06:07:12.126Z,57.03
2023-05-08T06:09:40.016Z,56.62
2023-05-08T06:12:08.294Z,56.52
2023-05-08T06:14:36.238Z,56.30
2023-05-08T06:17:04.226Z,55.84
2023-05-08T06:19:32.061Z,55.33
2023-05-08T06:22:00.053Z,55.34
2023-05-08T06:24:29.419Z,54.79
2023-05-08T06:26:57.365Z,54.71
2023-05-08T06:29:25.401Z,54.41
2023-05-08T06:31:53.305Z,54.03
2023-05-08T06:34:21.188Z,54.24
2023-05-08T06:36:49.076Z,53.49
2023-05-08T06:39:17.288Z,53.31
2023-05-08T06:41:48.410Z,53.09
2023-05-08T06:44:16.552Z,52.87
2023-05-08T06:46:44.539Z,53.01
2023-05-08T06:49:12.488Z,52.72
2023-05-08T06:51:40.529Z,52.72
2023-05-08T06:54:08.772Z,52.33
2023-05-08T06:56:37.082Z,52.02
2023-05-08T06:59:08.852Z,51.83
2023-05-08T07:01:38.229Z,51.13
2023-05-08T07:04:06.675Z,51.14
2023-05-08T07:06:34.832Z,50.76
2023-05-08T07:09:03.078Z,50.06
2023-05-08T07:11:31.008Z,49.80
2023-05-08T07:13:58.867Z,50.03
2023-05-08T07:16:28.236Z,50.30
2023-05-08T07:18:56.353Z,50.85
2023-05-08T07:21:24.241Z,51.11
2023-05-08T07:23:53.939Z,49.44
2023-05-08T07:26:22.719Z,47.91
2023-05-08T07:28:50.883Z,46.52
2023-05-08T07:31:18.923Z,44.86
2023-05-08T07:33:48.327Z,45.03
2023-05-08T07:36:16.372Z,44.75
2023-05-08T07:38:44.229Z,43.25
2023-05-08T07:41:12.206Z,41.53
2023-05-08T07:43:40.145Z,42.19
2023-05-08T07:46:08.061Z,42.56
2023-05-08T07:48:36.180Z,42.39
2023-05-08T07:51:05.837Z,40.95
2023-05-08T07:53:33.694Z,39.26
2023-05-08T07:56:01.642Z,39.71
2023-05-08T07:58:29.626Z,39.86
2023-05-08T08:00:57.523Z,39.62
2023-05-08T08:03:25.608Z,38.10
2023-05-08T08:05:53.653Z,37.61
2023-05-08T08:08:22.926Z,38.31
2023-05-08T08:10:51.212Z,37.93
2023-05-08T08:13:19.148Z,37.08
2023-05-08T08:15:47.119Z,36.46
2023-05-08T08:18:15.252Z,35.39
2023-05-08T08:20:43.170Z,35.33
2023-05-08T08:23:11.054Z,35.13
2023-05-08T08:25:40.438Z,35.04
2023-05-08T08:28:08.382Z,34.57
2023-05-08T08:30:36.209Z,34.47
2023-05-08T08:33:06.125Z,34.34
2023-05-08T08:35:34.367Z,33.61
2023-05-08T08:38:02.414Z,33.21
2023-05-08T08:40:30.439Z,32.45
2023-05-08T08:43:00.472Z,31.98
2023-05-08T08:45:28.298Z,32.50
2023-05-08T08:47:58.414Z,31.70
2023-05-08T08:50:27.938Z,32.50
2023-05-08T08:53:02.695Z,32.17
2023-05-08T08:55:32.150Z,31.68
2023-05-08T08:58:13.972Z,32.27
2023-05-08T09:00:42.814Z,32.93
2023-05-08T09:03:11.202Z,32.58
2023-05-08T09:05:39.477Z,33.35
2023-05-08T09:08:07.828Z,33.33
2023-05-08T09:10:37.181Z,33.38
2023-05-08T09:13:06.546Z,33.61
2023-05-08T09:15:34.725Z,33.52
2023-05-08T09:18:03.539Z,33.25
2023-05-08T09:20:31.863Z,33.06
2023-05-08T09:23:02.914Z,33.33
2023-05-08T09:25:43.004Z,33.95
2023-05-08T09:28:19.489Z,34.47
2023-05-08T09:30:51.894Z,34.05
2023-05-08T09:33:19.784Z,33.48
2023-05-08T09:35:48.866Z,33.08
2023-05-08T09:38:37.179Z,32.31
2023-05-08T09:41:09.840Z,32.42
2023-05-08T09:43:39.706Z,32.02
2023-05-08T09:46:24.836Z,32.04
2023-05-08T09:48:53.936Z,31.80
2023-05-08T09:51:22.589Z,31.10
2023-05-08T09:53:53.344Z,31.58
2023-05-08T09:56:35.589Z,31.36
2023-05-08T09:59:06.646Z,30.86
2023-05-08T10:01:36.793Z,31.92
2023-05-08T10:04:06.071Z,31.93
2023-05-08T10:06:34.699Z,32.72
2023-05-08T10:09:10.206Z,31.81
2023-05-08T10:11:38.384Z,31.96
2023-05-08T10:14:07.741Z,31.44
2023-05-08T10:16:42.807Z,31.15
2023-05-08T10:19:15.061Z,31.21
2023-05-08T10:21:47.231Z,30.37
2023-05-08T10:24:17.699Z,30.40
2023-05-08T10:27:05.731Z,29.91
2023-05-08T10:29:45.412Z,30.67
2023-05-08T10:32:14.556Z,30.94
2023-05-08T10:34:44.754Z,31.12
2023-05-08T10:37:13.760Z,30.03
2023-05-08T10:39:43.087Z,29.32
2023-05-08T10:42:11.739Z,29.79
2023-05-08T10:44:41.394Z,29.51
2023-05-08T10:47:18.960Z,29.57
2023-05-08T10:49:55.663Z,29.60
2023-05-08T10:52:30.726Z,29.71
2023-05-08T10:55:17.170Z,29.75
2023-05-08T10:58:07.109Z,29.40
2023-05-08T11:01:14.970Z,29.60
2023-05-08T11:03:46.122Z,29.36
2023-05-08T11:06:15.305Z,29.21
2023-05-08T11:08:54.806Z,28.68
2023-05-08T11:11:31.579Z,28.94
2023-05-08T11:14:15.238Z,28.90
2023-05-08T11:17:09.954Z,28.65
2023-05-08T11:19:39.148Z,28.24
2023-05-08T11:22:17.420Z,27.93
2023-05-08T11:24:57.980Z,27.50
2023-05-08T11:27:40.778Z,27.02
2023-05-08T11:30:23.333Z,26.03
2023-05-08T11:32:59.600Z,25.81
2023-05-08T11:35:48.280Z,26.12
2023-05-08T11:38:20.364Z,27.16
2023-05-08T11:40:50.592Z,26.56
2023-05-08T11:43:33.836Z,26.72
2023-05-08T11:46:04.330Z,27.76
2023-05-08T11:48:34.319Z,28.23
2023-05-08T11:51:02.762Z,28.19
2023-05-08T11:53:31.562Z,27.70
2023-05-08T11:56:00.559Z,27.18
2023-05-08T11:58:28.407Z,27.10
2023-05-08T12:00:56.640Z,26.63
2023-05-08T12:03:26.201Z,27.16
2023-05-08T12:05:58.695Z,27.53
2023-05-08T12:08:26.824Z,26.76
2023-05-08T12:10:56.684Z,27.19
2023-05-08T12:13:26.378Z,27.37
2023-05-08T12:15:56.143Z,26.99
2023-05-08T12:18:26.292Z,26.62
2023-05-08T12:20:58.451Z,26.49
2023-05-08T12:23:27.389Z,26.36
2023-05-08T12:25:55.754Z,25.75
2023-05-08T12:28:24.143Z,25.34
2023-05-08T12:30:52.333Z,25.51
2023-05-08T12:33:21.292Z,24.94
2023-05-08T12:35:49.435Z,24.98
2023-05-08T12:38:18.906Z,25.42
2023-05-08T12:40:49.201Z,25.15
2023-05-08T12:43:17.577Z,25.00
2023-05-08T12:45:45.818Z,25.36
2023-05-08T12:48:15.728Z,25.25
2023-05-08T12:50:45.237Z,25.54
2023-05-08T12:53:14.216Z,25.82
2023-05-08T12:55:53.540Z,25.81
2023-05-08T12:58:25.208Z,25.63
2023-05-08T13:00:54.004Z,25.80
2023-05-08T13:03:26.748Z,24.92
2023-05-08T13:05:55.972Z,24.11
2023-05-08T13:08:31.102Z,25.05
2023-05-08T13:11:01.349Z,25.66
2023-05-08T13:13:32.799Z,25.79
2023-05-08T13:16:04.576Z,25.87
2023-05-08T13:18:33.412Z,25.25
2023-05-08T13:21:02.317Z,24.56
2023-05-08T13:23:30.225Z,24.63
2023-05-08T13:25:58.302Z,24.83
2023-05-08T13:28:27.630Z,25.41
2023-05-08T13:30:55.469Z,25.76
2023-05-08T13:33:23.376Z,25.39
2023-05-08T13:35:51.352Z,25.12
2023-05-08T13:38:19.262Z,24.73
2023-05-08T13:40:47.188Z,24.23
2023-05-08T13:43:15.254Z,24.21
2023-05-08T13:45:44.508Z,23.76
2023-05-08T13:48:12.585Z,23.88
2023-05-08T13:50:40.768Z,23.79
2023-05-08T13:53:08.635Z,23.84
2023-05-08T13:55:38.153Z,22.76
2023-05-08T13:58:06.169Z,22.61
2023-05-08T14:00:34.803Z,22.49
2023-05-08T14:03:04.492Z,21.92
2023-05-08T14:05:32.475Z,22.11
2023-05-08T14:08:00.325Z,21.93
2023-05-08T14:10:28.254Z,22.38
2023-05-08T14:12:56.185Z,21.83
2023-05-08T14:15:29.257Z,22.14
2023-05-08T14:18:05.980Z,21.79
2023-05-08T14:20:34.030Z,21.87
2023-05-08T14:23:01.874Z,21.96
2023-05-08T14:25:29.793Z,21.60
2023-05-08T14:27:57.641Z,21.92
2023-05-08T14:30:25.598Z,21.43
2023-05-08T14:32:53.737Z,21.37
2023-05-08T14:35:23.037Z,21.18
2023-05-08T14:37:50.856Z,20.41
2023-05-08T14:40:19.103Z,20.09
2023-05-08T14:42:46.951Z,19.87
2023-05-08T14:45:14.993Z,19.68
2023-05-08T14:47:43.390Z,19.70
2023-05-08T14:50:12.291Z,19.70
2023-05-08T14:52:41.561Z,19.82
2023-05-08T14:55:10.995Z,19.44
2023-05-08T14:57:39.031Z,19.56
2023-05-08T15:00:08.337Z,19.49
2023-05-08T15:02:36.375Z,19.35
2023-05-08T15:07:54.260Z,19.29
2023-05-08T15:10:22.310Z,19.14
2023-05-08T15:12:50.494Z,18.97
2023-05-08T15:15:18.631Z,18.50
2023-05-08T15:17:46.655Z,18.99
2023-05-08T15:20:14.562Z,19.49
2023-05-08T15:22:42.527Z,19.89
2023-05-08T15:25:13.530Z,20.05
2023-05-08T15:27:42.009Z,19.63
2023-05-08T15:30:10.945Z,19.68
2023-05-08T15:32:40.317Z,19.71
2023-05-08T15:35:09.158Z,19.98
2023-05-08T15:37:38.199Z,19.79
2023-05-08T15:40:07.273Z,19.51
2023-05-08T15:42:36.877Z,19.28
2023-05-08T15:45:07.551Z,19.19
2023-05-08T15:47:35.405Z,19.13
2023-05-08T15:50:03.722Z,19.48
2023-05-08T15:52:31.826Z,18.93
2023-05-08T15:54:59.659Z,19.13
2023-05-08T15:57:28.073Z,19.05
2023-05-08T15:59:57.566Z,18.91
2023-05-08T16:02:25.504Z,19.31
2023-05-08T16:04:53.434Z,19.38
2023-05-08T16:07:22.857Z,19.13
2023-05-08T16:09:50.696Z,19.24
2023-05-08T16:12:19.857Z,19.32
2023-05-08T16:14:48.971Z,19.32
2023-05-08T16:17:18.382Z,19.26
2023-05-08T16:19:46.208Z,19.09
2023-05-08T16:22:14.320Z,19.24
2023-05-08T16:24:42.182Z,19.26
2023-05-08T16:27:11.411Z,19.20
2023-05-08T16:29:39.380Z,19.01
2023-05-08T16:32:07.404Z,18.99
2023-05-08T16:34:36.838Z,19.19
2023-05-08T16:37:04.988Z,18.85
2023-05-08T16:39:32.800Z,18.94
2023-05-08T16:42:00.656Z,18.77
2023-05-08T16:44:29.833Z,18.83
2023-05-08T16:46:57.692Z,18.94
2023-05-08T16:49:25.681Z,18.77
2023-05-08T16:51:57.433Z,18.85
2023-05-08T16:54:25.334Z,18.96
2023-05-08T16:56:53.176Z,19.23
2023-05-08T16:59:21.227Z,19.13
2023-05-08T17:01:49.081Z,19.14
2023-05-08T17:04:16.920Z,19.38
2023-05-08T17:06:44.902Z,19.47
2023-05-08T17:09:14.185Z,19.59
2023-05-08T17:11:42.006Z,20.11
2023-05-08T17:14:10.041Z,20.53
2023-05-08T17:16:38.702Z,20.71
2023-05-08T17:19:06.651Z,20.72
2023-05-08T17:21:35.011Z,21.07
2023-05-08T17:24:02.950Z,21.26
2023-05-08T17:26:34.570Z,21.15
2023-05-08T17:29:02.798Z,21.46
2023-05-08T17:31:30.736Z,21.77
2023-05-08T17:33:58.635Z,21.96
2023-05-08T17:36:26.637Z,22.04
2023-05-08T17:38:54.432Z,22.40
2023-05-08T17:41:23.049Z,22.53
2023-05-08T17:43:53.406Z,22.72
2023-05-08T17:46:21.466Z,22.87
2023-05-08T17:48:49.301Z,23.18
2023-05-08T17:51:17.308Z,22.88
2023-05-08T17:53:45.238Z,23.31
2023-05-08T17:56:13.214Z,23.83
2023-05-08T17:58:43.566Z,24.01
2023-05-08T18:01:13.990Z,24.20
2023-05-08T18:03:42.566Z,24.41
2023-05-08T18:06:11.166Z,24.29
2023-05-08T18:08:42.026Z,24.46
2023-05-08T18:11:17.631Z,24.55
2023-05-08T18:13:46.772Z,24.74
2023-05-08T18:16:18.706Z,24.64
2023-05-08T18:18:47.043Z,24.77
2023-05-08T18:21:15.110Z,25.08
2023-05-08T18:23:43.213Z,25.17
2023-05-08T18:26:14.310Z,24.96
2023-05-08T18:28:42.230Z,25.03
2023-05-08T18:31:11.009Z,25.62
2023-05-08T18:33:40.581Z,25.45
2023-05-08T18:36:08.937Z,25.63
2023-05-08T18:38:37.026Z,25.96
2023-05-08T18:41:06.243Z,26.31
2023-05-08T18:43:34.776Z,26.55
2023-05-08T18:46:09.332Z,26.93
2023-05-08T18:48:37.605Z,27.15
2023-05-08T18:51:07.230Z,27.10
2023-05-08T18:53:38.526Z,27.70
2023-05-08T18:56:07.536Z,28.22
2023-05-08T18:58:35.631Z,28.54
2023-05-08T19:01:03.954Z,28.42
2023-05-08T19:03:32.477Z,28.69
2023-05-08T19:06:00.588Z,28.85
2023-05-08T19:08:30.075Z,29.36
2023-05-08T19:10:58.592Z,29.68
2023-05-08T19:13:27.697Z,30.35
2023-05-08T19:15:56.419Z,30.38
2023-05-08T19:18:25.148Z,30.81
2023-05-08T19:20:53.000Z,31.29
2023-05-08T19:23:20.861Z,31.85
2023-05-08T19:25:50.250Z,32.45
2023-05-08T19:28:18.064Z,32.79
2023-05-08T19:30:45.912Z,33.27
2023-05-08T19:33:13.918Z,33.22
2023-05-08T19:35:41.771Z,33.42
2023-05-08T19:38:09.615Z,33.65
2023-05-08T19:40:51.915Z,33.73
2023-05-08T19:43:25.462Z,33.71
2023-05-08T19:45:53.564Z,33.55
2023-05-08T19:48:21.513Z,33.69
2023-05-08T19:50:49.637Z,33.82
2023-05-08T19:53:18.231Z,33.72
2023-05-08T19:55:46.342Z,33.90
2023-05-08T19:58:14.186Z,33.92
2023-05-08T20:00:43.499Z,34.07
2023-05-08T20:03:11.373Z,34.03
2023-05-08T20:05:39.240Z,34.05
2023-05-08T20:08:07.394Z,34.12
2023-05-08T20:10:35.222Z,34.19
2023-05-08T20:13:03.581Z,34.33
2023-05-08T20:15:31.620Z,34.79
2023-05-08T20:18:00.902Z,34.97
2023-05-08T20:20:29.759Z,34.98
2023-05-08T20:22:58.106Z,35.15
2023-05-08T20:25:25.986Z,35.41
2023-05-08T20:27:54.634Z,35.79
2023-05-08T20:30:23.620Z,35.94
2023-05-08T20:32:51.883Z,36.45
2023-05-08T20:35:21.378Z,36.79
2023-05-08T20:37:49.873Z,36.80
2023-05-08T20:40:17.779Z,37.03
2023-05-08T20:42:45.701Z,37.32
2023-05-08T20:45:15.153Z,37.56
2023-05-08T20:47:44.011Z,37.79
2023-05-08T20:50:12.237Z,37.72
2023-05-08T20:52:42.571Z,37.99
2023-05-08T20:55:11.260Z,37.81
2023-05-08T20:57:41.553Z,38.08
2023-05-08T21:00:10.453Z,38.11
2023-05-08T21:02:41.258Z,38.17
2023-05-08T21:05:11.344Z,38.52
2023-05-08T21:07:42.591Z,38.88
2023-05-08T21:10:11.242Z,38.32
2023-05-08T21:12:39.891Z,38.57
2023-05-08T21:15:09.239Z,38.90
2023-05-08T21:17:37.173Z,39.04
2023-05-08T21:20:05.478Z,39.21
2023-05-08T21:22:34.561Z,39.27
2023-05-08T21:25:03.899Z,39.42
2023-05-08T21:27:31.746Z,39.74
2023-05-08T21:29:59.677Z,39.94
2023-05-08T21:32:27.620Z,39.67
2023-05-08T21:34:56.176Z,40.71
2023-05-08T21:37:24.087Z,40.47
2023-05-08T21:39:52.018Z,40.30
2023-05-08T21:42:21.273Z,40.77
2023-05-08T21:44:49.232Z,40.55
2023-05-08T21:47:17.185Z,41.21
2023-05-08T21:49:45.004Z,41.02
2023-05-08T21:52:12.912Z,41.67
2023-05-08T21:54:40.894Z,41.52
2023-05-08T21:57:10.003Z,41.49
2023-05-08T21:59:39.342Z,41.98
2023-05-08T22:02:07.383Z,42.18
2023-05-08T22:04:35.324Z,42.52
2023-05-08T22:07:03.304Z,42.61
2023-05-08T22:09:31.287Z,42.28
2023-05-08T22:11:59.265Z,42.65
2023-05-08T22:14:27.227Z,43.18
2023-05-08T22:16:56.524Z,43.39
2023-05-08T22:19:24.335Z,43.33
2023-05-08T22:21:52.321Z,43.50
2023-05-08T22:24:20.268Z,43.48
2023-05-08T22:26:48.084Z,43.90
2023-05-08T22:29:17.019Z,43.87
2023-05-08T22:31:45.462Z,44.21
2023-05-08T22:34:15.016Z,44.10
2023-05-08T22:36:43.021Z,44.62
2023-05-08T22:39:11.711Z,45.05
2023-05-08T22:41:39.688Z,44.78
2023-05-08T22:44:07.999Z,44.78
2023-05-08T22:46:36.926Z,45.53
2023-05-08T22:49:05.055Z,45.47
2023-05-08T22:51:34.481Z,45.59
2023-05-08T22:54:02.376Z,45.67
2023-05-08T22:56:30.271Z,45.32
2023-05-08T22:58:58.191Z,46.17
2023-05-08T23:01:26.168Z,45.72
2023-05-08T23:03:56.608Z,46.50
2023-05-08T23:06:24.611Z,45.97
2023-05-08T23:08:53.944Z,46.28
2023-05-08T23:11:22.365Z,46.12
2023-05-08T23:13:50.254Z,46.59
2023-05-08T23:16:18.274Z,46.85
2023-05-08T23:18:46.428Z,46.78
2023-05-08T23:21:14.566Z,46.95
2023-05-08T23:23:42.568Z,47.72
2023-05-08T23:26:11.767Z,47.41
2023-05-08T23:28:39.690Z,47.78
2023-05-08T23:31:07.693Z,48.13
2023-05-08T23:33:35.570Z,47.91
2023-05-08T23:36:03.605Z,48.29
2023-05-08T23:38:32.831Z,48.36
2023-05-08T23:41:02.127Z,49.02
2023-05-08T23:43:31.465Z,48.92
2023-05-08T23:45:59.407Z,49.58
2023-05-08T23:48:27.550Z,49.06
2023-05-08T23:50:55.660Z,49.24
2023-05-08T23:53:23.644Z,49.53
2023-05-08T23:55:52.381Z,49.50
2023-05-08T23:58:20.428Z,49.60
